createdAt,value
2022-08-17T00:02:25.582Z,1.60
2022-08-17T00:04:54.258Z,1.63
2022-08-17T00:07:21.504Z,2.08
2022-08-17T00:09:48.666Z,1.73
2022-08-17T00:12:43.736Z,1.83
2022-08-17T00:15:05.710Z,1.60
2022-08-17T00:17:35.525Z,1.67
2022-08-17T00:20:04.352Z,1.77
2022-08-17T00:22:36.568Z,2.00
2022-08-17T00:25:12.192Z,1.75
2022-08-17T00:27:39.442Z,1.70
2022-08-17T00:30:09.713Z,1.63
2022-08-17T00:33:15.285Z,1.63
2022-08-17T00:35:33.790Z,1.75
2022-08-17T00:38:01.047Z,1.70
2022-08-17T00:40:39.798Z,2.00
2022-08-17T00:43:14.008Z,1.70
2022-08-17T00:45:41.986Z,1.58
2022-08-17T00:48:11.532Z,1.92
2022-08-17T00:51:08.908Z,1.63
2022-08-17T00:53:40.223Z,2.20
2022-08-17T00:56:10.981Z,1.80
2022-08-17T00:58:38.905Z,1.60
2022-08-17T01:01:08.755Z,1.75
2022-08-17T01:03:37.589Z,2.00
2022-08-17T01:06:06.703Z,1.63
2022-08-17T01:08:36.689Z,1.60
2022-08-17T01:11:05.504Z,1.60
2022-08-17T01:13:41.274Z,1.77
2022-08-17T01:16:28.556Z,1.67
2022-08-17T01:19:00.299Z,1.80
2022-08-17T01:22:03.549Z,2.10
2022-08-17T01:24:31.287Z,1.58
2022-08-17T01:27:01.488Z,2.03
2022-08-17T01:29:31.789Z,1.55
2022-08-17T01:32:02.748Z,1.65
2022-08-17T01:34:42.626Z,1.45
2022-08-17T01:37:14.465Z,1.70
2022-08-17T01:39:56.530Z,1.50
2022-08-17T01:42:45.098Z,1.65
2022-08-17T01:45:17.688Z,1.60
2022-08-17T01:47:45.883Z,1.33
2022-08-17T01:50:16.718Z,1.38
2022-08-17T01:52:46.275Z,1.60
2022-08-17T01:55:16.416Z,1.48
2022-08-17T02:00:14.238Z,1.73
2022-08-17T02:02:41.995Z,1.50
2022-08-17T02:05:09.931Z,1.85
2022-08-17T02:07:47.989Z,1.52
2022-08-17T02:10:24.303Z,2.15
2022-08-17T02:13:02.076Z,1.52
2022-08-17T02:15:29.384Z,1.60
2022-08-17T02:17:56.620Z,1.63
2022-08-17T02:20:42.044Z,1.80
2022-08-17T02:23:12.617Z,1.50
2022-08-17T02:25:43.581Z,1.70
2022-08-17T02:28:11.477Z,1.65
2022-08-17T02:31:01.909Z,1.73
2022-08-17T02:33:41.954Z,1.63
2022-08-17T02:36:12.440Z,1.40
2022-08-17T02:38:41.022Z,1.55
2022-08-17T02:41:09.236Z,1.30
2022-08-17T02:43:36.920Z,1.80
2022-08-17T02:46:04.109Z,1.63
2022-08-17T02:48:32.126Z,1.38
2022-08-17T02:51:00.420Z,1.55
2022-08-17T02:53:31.815Z,1.73
2022-08-17T02:56:04.213Z,1.73
2022-08-17T02:58:34.733Z,1.42
2022-08-17T03:01:09.001Z,2.00
2022-08-17T03:03:37.958Z,1.48
2022-08-17T03:06:07.823Z,1.60
2022-08-17T03:08:35.551Z,1.70
2022-08-17T03:11:02.783Z,1.88
2022-08-17T03:13:30.997Z,1.90
2022-08-17T03:15:58.803Z,1.77
2022-08-17T03:18:27.205Z,1.60
2022-08-17T03:20:59.005Z,1.50
2022-08-17T03:23:27.695Z,1.40
2022-08-17T03:25:57.309Z,1.48
2022-08-17T03:28:24.985Z,1.67
2022-08-17T03:30:52.521Z,2.00
2022-08-17T03:33:20.539Z,1.73
2022-08-17T03:35:48.358Z,1.60
2022-08-17T03:38:17.444Z,2.00
2022-08-17T03:40:56.437Z,1.60
2022-08-17T03:43:31.532Z,1.38
2022-08-17T03:46:34.266Z,1.42
2022-08-17T03:49:27.645Z,1.65
2022-08-17T03:52:15.730Z,2.00
2022-08-17T03:55:04.263Z,1.45
2022-08-17T03:57:32.051Z,1.60
2022-08-17T03:59:59.938Z,1.95
2022-08-17T04:02:33.173Z,1.63
2022-08-17T04:05:01.158Z,1.80
2022-08-17T04:07:31.287Z,1.42
2022-08-17T04:09:59.640Z,1.80
2022-08-17T04:12:31.223Z,2.08
2022-08-17T04:14:58.755Z,1.60
2022-08-17T04:17:28.555Z,1.40
2022-08-17T04:19:56.499Z,2.10
2022-08-17T04:22:30.732Z,1.63
2022-08-17T04:25:16.380Z,1.63
2022-08-17T04:27:43.840Z,1.70
2022-08-17T04:30:11.862Z,1.88
2022-08-17T04:33:10.466Z,1.70
2022-08-17T04:35:50.452Z,1.35
2022-08-17T04:38:20.521Z,1.50
2022-08-17T04:41:08.297Z,1.60
2022-08-17T04:43:37.291Z,1.88
2022-08-17T04:46:08.197Z,1.80
2022-08-17T04:48:38.630Z,1.95
2022-08-17T04:51:11.063Z,2.25
2022-08-17T04:53:40.560Z,1.63
2022-08-17T04:56:11.553Z,1.45
2022-08-17T04:58:45.146Z,2.20
2022-08-17T05:01:12.835Z,2.00
2022-08-17T05:03:40.330Z,2.05
2022-08-17T05:06:07.764Z,1.70
2022-08-17T05:08:35.345Z,1.90
2022-08-17T05:11:02.682Z,1.70
2022-08-17T05:13:30.454Z,2.17
2022-08-17T05:16:03.354Z,1.83
2022-08-17T05:18:32.101Z,2.78
2022-08-17T05:21:00.359Z,2.42
2022-08-17T05:23:35.571Z,2.45
2022-08-17T05:26:23.123Z,1.70
2022-08-17T05:28:59.810Z,1.90
2022-08-17T05:31:30.957Z,2.60
2022-08-17T05:33:58.164Z,2.78
2022-08-17T05:36:42.753Z,2.42
2022-08-17T05:39:17.045Z,2.67
2022-08-17T05:41:47.373Z,2.40
2022-08-17T05:44:15.363Z,2.90
2022-08-17T05:46:45.864Z,3.15
2022-08-17T05:49:16.652Z,2.42
2022-08-17T05:51:59.645Z,2.70
2022-08-17T05:54:52.414Z,3.80
2022-08-17T05:57:43.559Z,3.35
2022-08-17T06:00:30.288Z,3.45
2022-08-17T06:03:27.793Z,3.22
2022-08-17T06:06:25.188Z,2.85
2022-08-17T06:09:28.839Z,3.47
2022-08-17T06:12:38.555Z,3.30
2022-08-17T06:15:40.060Z,3.72
2022-08-17T06:18:12.147Z,3.95
2022-08-17T06:20:54.244Z,3.30
2022-08-17T06:23:36.595Z,3.20
2022-08-17T06:26:11.182Z,3.00
2022-08-17T06:28:47.834Z,3.83
2022-08-17T06:31:28.297Z,3.35
2022-08-17T06:33:58.871Z,3.13
2022-08-17T06:39:43.146Z,3.72
2022-08-17T06:43:02.398Z,3.22
2022-08-17T06:45:43.584Z,3.83
2022-08-17T06:48:47.414Z,3.38
2022-08-17T06:51:41.276Z,3.30
2022-08-17T06:54:38.997Z,3.30
2022-08-17T06:57:19.364Z,3.20
2022-08-17T06:59:56.750Z,3.03
2022-08-17T07:02:52.249Z,2.85
2022-08-17T07:05:23.996Z,4.28
2022-08-17T07:08:17.361Z,3.03
2022-08-17T07:11:00.752Z,3.47
2022-08-17T07:14:02.288Z,3.25
2022-08-17T07:16:49.065Z,3.53
2022-08-17T07:19:18.465Z,3.30
2022-08-17T07:22:01.758Z,3.40
2022-08-17T07:24:58.554Z,3.45
2022-08-17T07:27:30.926Z,3.33
2022-08-17T07:30:10.540Z,3.30
2022-08-17T07:32:45.335Z,3.22
2022-08-17T07:35:21.206Z,3.42
2022-08-17T07:37:54.327Z,3.15
2022-08-17T07:40:27.178Z,2.95
2022-08-17T07:43:33.953Z,2.97
2022-08-17T07:46:26.783Z,3.42
2022-08-17T07:48:57.827Z,3.40
2022-08-17T07:51:32.124Z,3.17
2022-08-17T07:54:14.145Z,2.47
2022-08-17T07:57:04.028Z,2.72
2022-08-17T07:59:34.167Z,3.45
2022-08-17T08:02:31.101Z,3.45
2022-08-17T08:05:48.544Z,3.08
2022-08-17T08:08:28.305Z,3.45
2022-08-17T08:11:10.945Z,2.83
2022-08-17T08:13:46.142Z,3.30
2022-08-17T08:16:29.850Z,3.30
2022-08-17T08:19:00.429Z,3.30
2022-08-17T08:24:30.032Z,2.53
2022-08-17T08:27:38.688Z,2.78
2022-08-17T08:30:12.266Z,2.83
2022-08-17T08:33:04.780Z,3.15
2022-08-17T08:35:41.833Z,3.97
2022-08-17T08:38:48.715Z,2.88
2022-08-17T08:41:54.975Z,2.80
2022-08-17T08:45:00.011Z,3.03
2022-08-17T08:48:23.110Z,3.13
2022-08-17T08:51:20.340Z,2.80
2022-08-17T08:54:02.058Z,2.55
2022-08-17T08:56:39.517Z,2.78
2022-08-17T08:59:42.032Z,2.80
2022-08-17T09:02:51.325Z,2.80
2022-08-17T09:05:58.196Z,2.85
2022-08-17T09:08:53.718Z,2.88
2022-08-17T09:12:02.874Z,3.40
2022-08-17T09:14:45.021Z,3.30
2022-08-17T09:17:40.389Z,2.95
2022-08-17T09:20:27.930Z,3.10
2022-08-17T09:23:22.856Z,3.25
2022-08-17T09:25:57.468Z,3.13
2022-08-17T09:28:34.415Z,3.67
2022-08-17T09:31:09.752Z,3.55
2022-08-17T09:33:43.596Z,3.00
2022-08-17T09:36:23.325Z,2.70
2022-08-17T09:39:08.892Z,3.25
2022-08-17T09:42:00.553Z,3.00
2022-08-17T09:44:42.948Z,3.30
2022-08-17T09:47:24.786Z,2.75
2022-08-17T09:50:03.822Z,3.03
2022-08-17T09:52:32.287Z,2.63
2022-08-17T09:55:01.927Z,2.85
2022-08-17T09:57:56.288Z,3.10
2022-08-17T10:00:28.075Z,3.08
2022-08-17T10:03:34.973Z,2.65
2022-08-17T10:06:22.153Z,3.10
2022-08-17T10:09:14.839Z,2.60
2022-08-17T10:12:17.789Z,3.17
2022-08-17T10:15:13.607Z,3.30
2022-08-17T10:18:21.973Z,2.80
2022-08-17T10:21:34.404Z,2.85
2022-08-17T10:25:21.682Z,3.00
2022-08-17T10:27:52.586Z,3.45
2022-08-17T10:30:23.980Z,3.10
2022-08-17T10:33:01.515Z,2.92
2022-08-17T10:35:46.466Z,2.75
2022-08-17T10:38:42.234Z,2.95
2022-08-17T10:41:33.906Z,3.15
2022-08-17T10:44:38.601Z,3.08
2022-08-17T10:47:17.653Z,3.17
2022-08-17T10:49:54.039Z,3.10
2022-08-17T10:52:46.158Z,2.92
2022-08-17T10:55:19.193Z,3.20
2022-08-17T10:57:50.302Z,3.70
2022-08-17T11:00:53.973Z,3.33
2022-08-17T11:03:23.887Z,3.45
2022-08-17T11:06:18.324Z,3.45
2022-08-17T11:09:20.130Z,2.75
2022-08-17T11:12:11.891Z,3.05
2022-08-17T11:14:58.358Z,3.40
2022-08-17T11:18:01.898Z,3.63
2022-08-17T11:21:06.890Z,3.42
2022-08-17T11:23:59.897Z,3.03
2022-08-17T11:26:32.262Z,3.35
2022-08-17T11:29:05.289Z,3.22
2022-08-17T11:31:41.720Z,3.10
2022-08-17T11:34:26.649Z,2.88
2022-08-17T11:37:30.436Z,3.25
2022-08-17T11:40:16.699Z,3.50
2022-08-17T11:43:17.600Z,3.38
2022-08-17T11:46:15.057Z,2.75
2022-08-17T11:49:22.429Z,2.85
2022-08-17T11:52:14.881Z,3.00
2022-08-17T11:54:45.588Z,3.40
2022-08-17T11:57:52.427Z,3.00
2022-08-17T12:00:52.036Z,3.28
2022-08-17T12:03:43.326Z,2.90
2022-08-17T12:06:34.756Z,2.67
2022-08-17T12:09:16.157Z,2.92
2022-08-17T12:12:14.821Z,2.97
2022-08-17T12:15:09.582Z,3.05
2022-08-17T12:17:40.838Z,3.42
2022-08-17T12:24:31.505Z,2.67
2022-08-17T12:27:01.913Z,2.83
2022-08-17T12:29:38.293Z,3.22
2022-08-17T12:32:13.186Z,2.97
2022-08-17T12:34:43.189Z,3.13
2022-08-17T12:37:23.238Z,3.00
2022-08-17T12:39:58.685Z,2.75
2022-08-17T12:42:31.866Z,3.08
2022-08-17T12:45:00.299Z,2.97
2022-08-17T12:47:30.240Z,3.50
2022-08-17T12:50:28.270Z,2.65
2022-08-17T12:53:01.694Z,2.70
2022-08-17T12:55:36.444Z,2.80
2022-08-17T12:58:04.139Z,2.92
2022-08-17T13:00:38.311Z,2.90
2022-08-17T13:03:13.362Z,3.17
2022-08-17T13:05:54.031Z,2.97
2022-08-17T13:08:38.285Z,3.30
2022-08-17T13:11:09.585Z,2.95
2022-08-17T13:13:39.826Z,3.15
2022-08-17T13:16:17.565Z,3.55
2022-08-17T13:18:48.182Z,2.67
2022-08-17T13:21:28.270Z,2.53
2022-08-17T13:24:20.840Z,2.70
2022-08-17T13:27:08.025Z,2.85
2022-08-17T13:29:40.533Z,2.60
2022-08-17T13:32:36.239Z,2.90
2022-08-17T13:35:32.403Z,2.40
2022-08-17T13:38:12.597Z,2.63
2022-08-17T13:40:44.655Z,2.85
2022-08-17T13:43:12.477Z,2.67
2022-08-17T13:45:50.593Z,2.83
2022-08-17T13:48:32.238Z,2.60
2022-08-17T13:51:07.554Z,2.88
2022-08-17T13:53:52.287Z,2.55
2022-08-17T13:56:44.491Z,2.40
2022-08-17T13:59:36.370Z,2.70
2022-08-17T14:02:17.378Z,3.15
2022-08-17T14:04:46.620Z,2.45
2022-08-17T14:07:35.452Z,2.95
2022-08-17T14:10:13.001Z,2.92
2022-08-17T14:12:42.135Z,3.17
2022-08-17T14:15:10.864Z,2.67
2022-08-17T14:17:39.208Z,2.60
2022-08-17T14:20:11.949Z,2.70
2022-08-17T14:22:43.535Z,2.30
2022-08-17T14:25:14.064Z,2.90
2022-08-17T14:30:25.082Z,2.60
2022-08-17T14:32:53.643Z,2.42
2022-08-17T14:35:23.296Z,2.60
2022-08-17T14:37:51.716Z,2.17
2022-08-17T14:40:22.796Z,2.65
2022-08-17T14:42:50.486Z,2.53
2022-08-17T14:45:29.652Z,2.90
2022-08-17T14:48:01.929Z,2.45
2022-08-17T14:50:29.083Z,2.75
2022-08-17T14:52:57.897Z,2.42
2022-08-17T14:55:26.269Z,2.97
2022-08-17T14:57:53.473Z,3.63
2022-08-17T15:00:20.875Z,3.08
2022-08-17T15:02:56.773Z,2.88
2022-08-17T15:05:26.250Z,3.15
2022-08-17T15:07:53.950Z,3.17
2022-08-17T15:10:21.845Z,3.13
2022-08-17T15:12:49.431Z,2.90
2022-08-17T15:15:18.173Z,3.05
2022-08-17T15:17:46.119Z,3.17
2022-08-17T15:20:17.735Z,2.67
2022-08-17T15:22:49.517Z,2.63
2022-08-17T15:25:19.308Z,2.95
2022-08-17T15:27:47.571Z,2.58
2022-08-17T15:30:15.453Z,3.08
2022-08-17T15:32:45.832Z,2.55
2022-08-17T15:35:26.817Z,2.97
2022-08-17T15:37:55.151Z,2.92
2022-08-17T15:40:22.311Z,2.63
2022-08-17T15:42:51.245Z,2.92
2022-08-17T15:45:22.702Z,2.90
2022-08-17T15:47:49.945Z,2.95
2022-08-17T15:50:17.364Z,3.30
2022-08-17T15:52:45.226Z,2.90
2022-08-17T15:55:15.075Z,2.67
2022-08-17T15:57:42.472Z,2.17
2022-08-17T16:00:10.705Z,2.30
2022-08-17T16:03:13.251Z,2.50
2022-08-17T16:05:31.242Z,2.95
2022-08-17T16:07:59.922Z,2.30
2022-08-17T16:10:35.311Z,2.53
2022-08-17T16:13:04.582Z,2.20
2022-08-17T16:15:32.316Z,2.60
2022-08-17T16:17:59.971Z,2.72
2022-08-17T16:20:27.412Z,2.30
2022-08-17T16:22:55.165Z,2.30
2022-08-17T16:25:38.290Z,2.60
2022-08-17T16:28:15.819Z,2.35
2022-08-17T16:30:43.511Z,2.35
2022-08-17T16:33:11.848Z,2.50
2022-08-17T16:35:39.587Z,2.45
2022-08-17T16:38:07.104Z,2.30
2022-08-17T16:40:35.706Z,2.10
2022-08-17T16:43:04.432Z,2.20
2022-08-17T16:45:43.299Z,2.30
2022-08-17T16:48:10.502Z,2.40
2022-08-17T16:50:37.959Z,2.25
2022-08-17T16:53:11.686Z,2.30
2022-08-17T16:55:39.223Z,2.30
2022-08-17T16:58:08.898Z,2.45
2022-08-17T17:00:37.320Z,2.45
2022-08-17T17:03:20.200Z,2.20
2022-08-17T17:06:14.349Z,2.15
2022-08-17T17:08:50.924Z,2.80
2022-08-17T17:11:27.121Z,2.20
2022-08-17T17:14:02.229Z,2.63
2022-08-17T17:16:52.483Z,2.13
2022-08-17T17:19:40.830Z,2.50
2022-08-17T17:22:27.169Z,2.10
2022-08-17T17:25:25.863Z,2.10
2022-08-17T17:28:29.752Z,2.28
2022-08-17T17:31:21.238Z,2.60
2022-08-17T17:34:03.999Z,1.98
2022-08-17T17:36:48.599Z,2.10
2022-08-17T17:39:44.422Z,1.80
2022-08-17T17:42:16.616Z,2.22
2022-08-17T17:44:52.580Z,1.90
2022-08-17T17:47:20.163Z,2.22
2022-08-17T17:49:51.065Z,2.15
2022-08-17T17:52:37.969Z,1.90
2022-08-17T17:55:28.466Z,2.25
2022-08-17T17:58:34.621Z,1.90
2022-08-17T18:01:35.605Z,2.10
2022-08-17T18:04:30.844Z,2.13
2022-08-17T18:07:30.373Z,1.98
2022-08-17T18:10:29.860Z,2.00
2022-08-17T18:13:25.961Z,2.00
2022-08-17T18:15:56.284Z,2.08
2022-08-17T18:18:39.067Z,2.35
2022-08-17T18:21:19.650Z,3.00
2022-08-17T18:24:03.060Z,2.20
2022-08-17T18:26:39.505Z,2.03
2022-08-17T18:29:24.064Z,2.58
2022-08-17T18:32:29.812Z,2.10
2022-08-17T18:35:19.152Z,2.15
2022-08-17T18:37:57.813Z,2.22
2022-08-17T18:40:30.910Z,2.17
2022-08-17T18:43:24.616Z,1.65
2022-08-17T18:45:54.865Z,2.25
2022-08-17T18:48:39.351Z,2.30
2022-08-17T18:51:40.839Z,2.25
2022-08-17T18:54:23.896Z,1.90
2022-08-17T18:57:02.236Z,2.05
2022-08-17T18:59:45.772Z,2.75
2022-08-17T19:02:46.260Z,2.17
2022-08-17T19:05:37.603Z,2.55
2022-08-17T19:08:32.906Z,2.03
2022-08-17T19:11:07.715Z,2.03
2022-08-17T19:13:43.863Z,2.15
2022-08-17T19:16:18.858Z,2.20
2022-08-17T19:18:53.119Z,1.85
2022-08-17T19:21:38.017Z,1.70
2022-08-17T19:24:19.750Z,1.90
2022-08-17T19:26:56.534Z,1.85
2022-08-17T19:29:50.835Z,1.70
2022-08-17T19:32:23.408Z,1.80
2022-08-17T19:34:51.031Z,1.73
2022-08-17T19:37:58.455Z,1.52
2022-08-17T19:41:05.360Z,1.80
2022-08-17T19:44:12.195Z,1.88
2022-08-17T19:47:30.458Z,1.70
2022-08-17T19:50:13.771Z,1.80
2022-08-17T19:53:07.448Z,2.00
2022-08-17T19:56:04.726Z,1.63
2022-08-17T19:58:46.507Z,1.85
2022-08-17T20:01:20.834Z,2.15
2022-08-17T20:04:11.638Z,2.03
2022-08-17T20:06:43.343Z,1.85
2022-08-17T20:09:21.298Z,1.70
2022-08-17T20:11:55.132Z,1.75
2022-08-17T20:14:30.624Z,1.67
2022-08-17T20:17:02.366Z,1.92
2022-08-17T20:19:53.331Z,1.55
2022-08-17T20:22:34.756Z,2.00
2022-08-17T20:25:30.488Z,2.22
2022-08-17T20:28:17.903Z,1.52
2022-08-17T20:30:45.186Z,1.73
2022-08-17T20:33:34.048Z,1.73
2022-08-17T20:36:18.364Z,1.52
2022-08-17T20:38:56.943Z,1.60
2022-08-17T20:41:30.009Z,1.83
2022-08-17T20:44:05.769Z,1.80
2022-08-17T20:46:57.035Z,2.10
2022-08-17T20:49:35.978Z,1.80
2022-08-17T20:52:18.516Z,1.60
2022-08-17T20:54:54.994Z,1.85
2022-08-17T20:57:44.064Z,1.58
2022-08-17T21:00:41.680Z,1.40
2022-08-17T21:03:50.302Z,1.65
2022-08-17T21:06:20.816Z,1.90
2022-08-17T21:09:25.773Z,1.80
2022-08-17T21:12:03.862Z,2.45
2022-08-17T21:14:38.685Z,1.70
2022-08-17T21:17:29.800Z,1.90
2022-08-17T21:20:25.599Z,2.03
2022-08-17T21:23:20.797Z,1.83
2022-08-17T21:26:30.321Z,1.77
2022-08-17T21:29:32.045Z,2.03
2022-08-17T21:32:18.469Z,1.73
2022-08-17T21:35:26.928Z,1.60
2022-08-17T21:38:04.530Z,1.60
2022-08-17T21:40:33.503Z,1.85
2022-08-17T21:43:27.216Z,1.63
2022-08-17T21:46:02.532Z,1.58
2022-08-17T21:48:32.747Z,1.80
2022-08-17T21:51:12.325Z,2.13
2022-08-17T21:53:48.407Z,1.33
2022-08-17T21:56:26.050Z,1.80
2022-08-17T21:59:08.634Z,1.98
2022-08-17T22:01:40.258Z,2.10
2022-08-17T22:04:31.553Z,2.00
2022-08-17T22:07:04.878Z,1.90
2022-08-17T22:09:42.842Z,1.80
2022-08-17T22:12:18.698Z,1.63
2022-08-17T22:15:01.646Z,1.65
2022-08-17T22:17:35.644Z,1.50
2022-08-17T22:20:18.235Z,2.05
2022-08-17T22:23:26.477Z,2.10
2022-08-17T22:26:04.995Z,1.83
2022-08-17T22:28:46.141Z,2.25
2022-08-17T22:31:22.995Z,1.90
2022-08-17T22:34:12.677Z,1.75
2022-08-17T22:36:41.978Z,1.80
2022-08-17T22:39:40.657Z,1.60
2022-08-17T22:42:14.833Z,2.20
2022-08-17T22:44:48.794Z,1.63
2022-08-17T22:47:30.766Z,2.10
2022-08-17T22:50:02.134Z,1.90
2022-08-17T22:52:56.712Z,1.80
2022-08-17T22:55:44.669Z,1.80
2022-08-17T22:58:41.347Z,2.20
2022-08-17T23:01:31.647Z,2.00
2022-08-17T23:04:05.976Z,2.13
2022-08-17T23:06:36.445Z,1.90
2022-08-17T23:09:05.909Z,2.20
2022-08-17T23:11:49.323Z,2.42
2022-08-17T23:14:20.013Z,1.55
2022-08-17T23:16:49.149Z,2.38
2022-08-17T23:19:19.387Z,1.90
2022-08-17T23:21:46.623Z,1.75
2022-08-17T23:24:28.130Z,2.08
2022-08-17T23:26:57.480Z,2.17
2022-08-17T23:29:25.445Z,2.08
2022-08-17T23:31:53.114Z,2.22
2022-08-17T23:34:20.579Z,1.80
2022-08-17T23:36:52.942Z,2.15
2022-08-17T23:39:27.316Z,2.47
2022-08-17T23:41:56.297Z,1.88
2022-08-17T23:44:23.657Z,2.15
2022-08-17T23:46:52.344Z,2.10
2022-08-17T23:49:20.339Z,2.13
2022-08-17T23:51:48.996Z,2.10
2022-08-17T23:54:43.954Z,2.05
2022-08-17T23:57:13.945Z,2.25
2022-08-17T23:59:41.377Z,2.35
